Time;durP1;ratioP1;P1;durP2;ratioP2;P2;SDS_P1;SDS_P2;PMS_P1;PMS_P2;Temp;Humidity;BMP_temperature;BMP_pressure;BME280_temperature;BME280_humidity;BME280_pressure;Samples;Min_cycle;Max_cycle;Signal;HPM_P1;HPM_P2
2022/06/15 00:01:15;;;;;;;7.43;5.25;;;15.20;98.80;;;;;;4936470;28;92905;-72
2022/06/15 00:03:42;;;;;;;8.55;4.68;;;15.20;99.00;;;;;;4936178;28;91787;-72
2022/06/15 00:06:13;;;;;;;7.05;4.80;;;15.20;99.00;;;;;;4935588;28;93266;-72
2022/06/15 00:08:42;;;;;;;8.27;5.43;;;15.10;99.10;;;;;;4935493;28;94064;-72
2022/06/15 00:11:14;;;;;;;6.93;5.55;;;15.10;99.10;;;;;;4934523;28;94900;-72
2022/06/15 00:13:40;;;;;;;7.78;5.78;;;15.10;99.20;;;;;;4937452;28;92357;-72
2022/06/15 00:16:07;;;;;;;7.13;5.43;;;15.10;99.20;;;;;;4935521;28;93410;-72
2022/06/15 00:18:36;;;;;;;8.27;6.30;;;15.00;99.20;;;;;;4934861;28;112090;-72
2022/06/15 00:21:04;;;;;;;5.78;5.25;;;15.00;99.30;;;;;;4935565;28;92563;-72
2022/06/15 00:23:33;;;;;;;7.35;5.10;;;14.90;99.40;;;;;;4936763;28;92343;-72
2022/06/15 00:26:00;;;;;;;5.35;4.85;;;15.00;99.40;;;;;;4936460;28;93140;-72
2022/06/15 00:28:28;;;;;;;9.52;6.72;;;14.90;99.50;;;;;;4935721;28;93111;-72
2022/06/15 00:30:55;;;;;;;6.63;5.97;;;14.90;99.60;;;;;;4936896;28;92342;-72
2022/06/15 00:33:27;;;;;;;6.72;5.40;;;14.90;99.60;;;;;;4935291;28;92489;-72
2022/06/15 00:36:02;;;;;;;8.88;6.47;;;14.80;99.70;;;;;;4935001;28;95525;-72
2022/06/15 00:38:35;;;;;;;5.93;5.32;;;14.80;99.80;;;;;;4935156;28;96519;-72
2022/06/15 00:41:04;;;;;;;6.40;5.43;;;14.80;99.90;;;;;;4936637;28;92433;-72
2022/06/15 00:43:37;;;;;;;7.63;5.45;;;14.70;99.90;;;;;;4935222;28;92561;-72
2022/06/15 00:46:29;;;;;;;7.55;5.10;;;14.70;99.90;;;;;;4936361;28;93235;-72
2022/06/15 00:49:04;;;;;;;6.85;5.18;;;14.70;99.90;;;;;;4935091;28;92791;-72
2022/06/15 00:51:32;;;;;;;6.30;5.70;;;14.70;99.90;;;;;;4936844;28;92452;-72
2022/06/15 00:54:04;;;;;;;9.25;5.70;;;14.60;99.90;;;;;;4919601;28;91800;-72
2022/06/15 00:56:40;;;;;;;7.65;5.13;;;14.60;99.90;;;;;;4935043;28;95716;-72
2022/06/15 00:59:22;;;;;;;9.25;5.85;;;14.60;99.90;;;;;;4936024;28;92986;-72
2022/06/15 01:01:49;;;;;;;8.93;5.28;;;14.60;99.90;;;;;;4933763;28;94918;-72
2022/06/15 01:04:19;;;;;;;10.10;5.63;;;14.50;99.90;;;;;;4934956;28;92561;-72
2022/06/15 01:07:17;;;;;;;7.63;5.47;;;14.50;99.90;;;;;;4934516;28;95807;-72
2022/06/15 01:09:59;;;;;;;9.82;5.85;;;14.50;99.90;;;;;;4932079;28;93083;-72
2022/06/15 01:12:59;;;;;;;11.32;6.50;;;14.40;99.90;;;;;;4934942;28;92618;-72
2022/06/15 01:15:45;;;;;;;7.80;5.82;;;14.50;99.90;;;;;;4936375;28;93063;-72
2022/06/15 01:18:54;;;;;;;11.55;5.85;;;14.40;99.90;;;;;;4934608;28;95829;-72
2022/06/15 01:22:00;;;;;;;9.48;6.00;;;14.40;99.90;;;;;;4928038;28;95536;-72
2022/06/15 01:24:33;;;;;;;9.27;6.37;;;14.40;99.90;;;;;;4938359;28;92485;-72
2022/06/15 01:27:42;;;;;;;9.85;5.93;;;14.30;99.90;;;;;;4937891;28;92553;-72
2022/06/15 01:30:46;;;;;;;6.90;5.80;;;14.30;99.90;;;;;;4917419;28;98288;-72
2022/06/15 01:33:25;;;;;;;8.87;6.20;;;14.30;99.90;;;;;;4937616;28;98066;-72
2022/06/15 01:36:32;;;;;;;8.30;5.63;;;14.20;99.90;;;;;;4938053;28;92820;-72
2022/06/15 01:39:11;;;;;;;9.65;5.82;;;14.20;99.90;;;;;;4923573;28;92478;-72
2022/06/15 01:41:48;;;;;;;9.27;6.78;;;14.20;99.90;;;;;;4939332;28;93370;-72
2022/06/15 01:44:32;;;;;;;6.13;5.50;;;14.20;99.90;;;;;;4938043;28;93186;-72
2022/06/15 01:47:04;;;;;;;;;;;14.20;99.90;;;;;;4938323;28;92480;-72
2022/06/15 01:49:59;;;;;;;7.60;5.88;;;14.00;99.90;;;;;;4939265;28;92185;-72
2022/06/15 01:52:36;;;;;;;7.95;5.63;;;14.10;99.90;;;;;;4932377;28;94109;-72
2022/06/15 01:55:11;;;;;;;7.85;7.10;;;14.10;99.90;;;;;;4937651;28;95814;-72
2022/06/15 01:57:39;;;;;;;6.88;5.57;;;14.10;99.90;;;;;;4936750;28;95732;-72
2022/06/15 02:00:13;;;;;;;6.72;6.07;;;14.00;99.90;;;;;;4936979;28;92481;-72
2022/06/15 02:02:58;;;;;;;7.97;7.18;;;14.00;99.90;;;;;;4938583;28;92841;-72
2022/06/15 02:05:51;;;;;;;8.90;7.13;;;14.00;99.90;;;;;;4937192;28;94974;-72
2022/06/15 02:08:42;;;;;;;7.55;6.10;;;14.00;99.90;;;;;;4937263;28;92507;-72
2022/06/15 02:11:27;;;;;;;8.95;6.38;;;14.00;99.90;;;;;;4937430;28;92587;-72
2022/06/15 02:14:10;;;;;;;10.27;6.60;;;14.00;99.90;;;;;;4921463;28;96103;-72
2022/06/15 02:16:48;;;;;;;6.68;5.82;;;14.00;99.90;;;;;;4937799;28;95303;-72
2022/06/15 02:19:19;;;;;;;9.07;6.25;;;13.90;99.90;;;;;;4937627;28;92997;-72
2022/06/15 02:21:50;;;;;;;10.93;6.22;;;13.90;99.90;;;;;;4938459;28;92474;-72
2022/06/15 02:24:19;;;;;;;6.30;5.70;;;13.90;99.90;;;;;;4937131;28;95880;-72
2022/06/15 02:26:46;;;;;;;8.77;6.63;;;13.80;99.90;;;;;;4921100;28;98053;-72
2022/06/15 02:29:22;;;;;;;9.02;6.32;;;13.90;99.90;;;;;;4937130;28;93228;-72
2022/06/15 02:31:55;;;;;;;9.05;6.18;;;13.90;99.90;;;;;;4937357;28;92555;-72
2022/06/15 02:34:24;;;;;;;8.35;7.05;;;13.90;99.90;;;;;;4935482;28;95751;-72
2022/06/15 02:36:51;;;;;;;7.93;7.10;;;13.80;99.90;;;;;;4936973;28;95318;-72
2022/06/15 02:39:21;;;;;;;7.88;6.28;;;13.80;99.90;;;;;;4936903;28;92622;-72
2022/06/15 02:41:59;;;;;;;7.65;6.30;;;13.80;99.90;;;;;;4937450;28;91901;-72
2022/06/15 02:44:30;;;;;;;7.60;6.35;;;13.80;99.90;;;;;;4936533;28;95357;-72
2022/06/15 02:46:59;;;;;;;9.88;6.22;;;13.80;99.90;;;;;;4937004;28;94725;-72
2022/06/15 02:49:26;;;;;;;8.75;7.00;;;13.80;99.90;;;;;;4935519;28;95710;-72
2022/06/15 02:52:05;;;;;;;10.85;6.20;;;13.80;99.90;;;;;;4920854;28;92539;-72
2022/06/15 02:54:42;;;;;;;7.82;6.20;;;13.80;99.90;;;;;;4936511;28;95939;-72
2022/06/15 02:57:14;;;;;;;8.43;7.32;;;13.80;99.90;;;;;;4936459;28;94897;-72
2022/06/15 02:59:45;;;;;;;8.57;6.47;;;13.70;99.90;;;;;;4936416;28;92531;-72
2022/06/15 03:02:14;;;;;;;9.80;6.88;;;13.70;99.90;;;;;;4936639;28;93288;-72
2022/06/15 03:04:44;;;;;;;7.53;6.82;;;13.70;99.90;;;;;;4936597;28;95186;-72
2022/06/15 03:07:14;;;;;;;7.82;7.05;;;13.70;99.90;;;;;;4936803;28;95503;-72
2022/06/15 03:09:41;;;;;;;10.23;7.68;;;13.70;99.90;;;;;;4937757;28;93040;-72
2022/06/15 03:12:13;;;;;;;12.07;6.90;;;13.70;99.90;;;;;;4936798;28;92553;-72
2022/06/15 03:14:40;;;;;;;10.15;7.13;;;13.70;99.90;;;;;;4919736;28;96945;-72
2022/06/15 03:17:13;;;;;;;8.50;7.13;;;13.70;99.90;;;;;;4936264;28;97741;-72
2022/06/15 03:19:53;;;;;;;8.73;6.90;;;13.60;99.90;;;;;;4936620;28;92591;-72
2022/06/15 03:22:20;;;;;;;9.63;6.85;;;13.60;99.90;;;;;;4936210;28;92562;-72
2022/06/15 03:24:51;;;;;;;12.60;8.02;;;13.60;99.90;;;;;;4936260;28;95267;-72
2022/06/15 03:27:18;;;;;;;11.23;7.22;;;13.60;99.90;;;;;;4935980;28;95659;-72
2022/06/15 03:29:50;;;;;;;9.82;6.95;;;13.60;99.90;;;;;;4936279;28;92521;-72
2022/06/15 03:32:19;;;;;;;9.02;6.90;;;13.60;99.90;;;;;;4936478;28;91815;-71
2022/06/15 03:34:53;;;;;;;9.45;6.90;;;13.60;99.90;;;;;;4936057;28;94795;-71
2022/06/15 03:37:20;;;;;;;12.68;9.35;;;13.60;99.90;;;;;;4919944;28;94103;-72
2022/06/15 03:39:48;;;;;;;9.40;7.82;;;13.60;99.90;;;;;;4919283;28;94862;-72
2022/06/15 03:42:19;;;;;;;13.55;7.63;;;13.60;99.90;;;;;;4936166;28;92528;-72
2022/06/15 03:44:47;;;;;;;10.50;7.18;;;13.60;99.90;;;;;;4919788;28;95644;-72
2022/06/15 03:47:17;;;;;;;10.07;6.68;;;13.60;99.90;;;;;;4935791;28;95646;-72
2022/06/15 03:49:53;;;;;;;9.07;6.82;;;13.60;99.90;;;;;;4919943;28;92456;-72
2022/06/15 03:52:24;;;;;;;7.35;6.57;;;13.80;99.90;;;;;;4936011;28;92499;-72
2022/06/15 03:54:51;;;;;;;11.43;6.75;;;14.00;99.90;;;;;;4935721;28;95555;-72
2022/06/15 03:57:20;;;;;;;7.82;6.65;;;14.50;99.90;;;;;;4936168;28;95455;-72
2022/06/15 03:59:49;;;;;;;8.80;6.28;;;14.90;99.90;;;;;;4935296;28;92461;-72
2022/06/15 04:02:35;;;;;;;6.95;5.75;;;15.30;99.70;;;;;;4934264;28;92413;-72
2022/06/15 04:05:05;;;;;;;11.48;6.38;;;15.70;99.00;;;;;;4918787;28;96746;-72
2022/06/15 04:10:18;;;;;;;8.27;6.28;;;15.80;98.20;;;;;;4935775;28;92446;-72
2022/06/15 04:12:45;;;;;;;8.65;6.40;;;15.80;98.30;;;;;;4919424;28;92481;-72
2022/06/15 04:15:16;;;;;;;8.35;6.75;;;15.70;98.30;;;;;;4935431;28;95687;-72
2022/06/15 04:17:51;;;;;;;9.77;6.53;;;15.60;98.40;;;;;;4920839;28;95367;-72
2022/06/15 04:20:40;;;;;;;8.90;6.55;;;15.60;98.40;;;;;;4922208;28;92836;-72
2022/06/15 04:23:27;;;;;;;9.10;6.65;;;15.50;98.40;;;;;;4936787;28;91761;-72
2022/06/15 04:26:01;;;;;;;8.45;7.32;;;15.60;98.50;;;;;;4935297;28;95296;-72
2022/06/15 04:28:38;;;;;;;7.68;5.90;;;15.60;98.40;;;;;;4935274;28;95544;-72
2022/06/15 04:31:14;;;;;;;8.73;7.80;;;15.60;98.40;;;;;;4934414;28;94936;-72
2022/06/15 04:33:40;;;;;;;11.20;6.72;;;15.50;98.30;;;;;;4935168;28;92579;-72
2022/06/15 04:36:12;;;;;;;9.20;8.07;;;15.60;98.50;;;;;;4935217;28;95483;-72
2022/06/15 04:38:43;;;;;;;8.13;6.60;;;15.70;98.50;;;;;;4919742;28;95575;-72
2022/06/15 04:41:11;;;;;;;9.05;7.22;;;15.70;98.40;;;;;;4935338;28;92554;-72
2022/06/15 04:43:38;;;;;;;9.50;7.25;;;15.70;98.40;;;;;;4918877;28;92526;-72
2022/06/15 04:46:11;;;;;;;;;;;15.70;98.30;;;;;;4935792;28;95098;-72
2022/06/15 04:48:41;;;;;;;10.20;7.10;;;15.70;98.20;;;;;;4936313;28;94964;-72
2022/06/15 04:51:18;;;;;;;9.30;7.18;;;15.80;98.60;;;;;;4935505;28;92499;-72
2022/06/15 04:53:52;;;;;;;9.52;6.15;;;15.80;98.50;;;;;;4934792;28;92555;-72
2022/06/15 04:56:21;;;;;;;8.80;6.25;;;15.90;98.50;;;;;;4933798;28;97738;-72
2022/06/15 04:58:48;;;;;;;8.45;6.18;;;16.10;98.40;;;;;;4921861;28;97877;-72
2022/06/15 05:01:18;;;;;;;9.45;6.32;;;16.20;98.30;;;;;;4938239;28;95123;-72
2022/06/15 05:03:46;;;;;;;7.97;5.28;;;16.40;98.00;;;;;;4939873;28;93084;-72
2022/06/15 05:06:35;;;;;;;7.00;6.30;;;16.60;97.70;;;;;;4939443;28;93166;-72
2022/06/15 05:09:06;;;;;;;6.53;4.90;;;16.80;97.00;;;;;;4938234;28;95043;-72
2022/06/15 05:11:34;;;;;;;7.93;6.32;;;16.90;97.10;;;;;;4938330;28;93034;-72
2022/06/15 05:14:02;;;;;;;6.65;5.63;;;17.00;96.90;;;;;;4938747;28;91738;-72
2022/06/15 05:16:33;;;;;;;7.50;5.43;;;17.10;96.70;;;;;;4937868;28;95179;-72
2022/06/15 05:19:01;;;;;;;6.05;5.15;;;17.20;96.60;;;;;;4937981;28;95617;-72
2022/06/15 05:21:31;;;;;;;7.88;5.07;;;17.40;96.50;;;;;;4937292;28;94876;-72
2022/06/15 05:23:58;;;;;;;8.10;4.95;;;17.50;96.30;;;;;;4938136;28;93183;-72
2022/06/15 05:26:48;;;;;;;5.45;4.18;;;17.60;96.10;;;;;;4937934;28;95763;-72
2022/06/15 05:29:15;;;;;;;7.20;5.28;;;17.70;95.90;;;;;;4937834;28;95136;-72
2022/06/15 05:31:44;;;;;;;6.15;4.15;;;17.90;95.50;;;;;;4938051;28;92537;-72
2022/06/15 05:34:13;;;;;;;6.53;5.05;;;18.10;95.10;;;;;;4938181;28;92794;-72
2022/06/15 05:36:41;;;;;;;7.60;4.00;;;18.30;94.80;;;;;;4937858;28;95653;-72
2022/06/15 05:39:09;;;;;;;5.43;4.88;;;18.50;94.60;;;;;;4938299;28;95454;-72
2022/06/15 05:41:40;;;;;;;8.77;5.22;;;18.60;94.40;;;;;;4922151;28;92488;-72
2022/06/15 05:46:42;;;;;;;8.00;5.20;;;18.80;93.70;;;;;;4936533;28;97975;-72
2022/06/15 05:49:28;;;;;;;4.72;4.00;;;18.90;93.80;;;;;;4923746;28;97977;-72
2022/06/15 05:51:56;;;;;;;5.75;3.70;;;18.90;93.40;;;;;;4937754;28;92556;-72
2022/06/15 05:54:25;;;;;;;5.10;3.63;;;18.90;93.40;;;;;;4922009;28;92545;-72
2022/06/15 05:56:52;;;;;;;5.75;3.65;;;19.10;93.50;;;;;;4938589;28;101081;-72
2022/06/15 05:59:19;;;;;;;6.20;5.15;;;19.20;93.00;;;;;;4937620;28;94160;-72
2022/06/15 06:01:46;;;;;;;6.70;5.00;;;19.20;92.80;;;;;;4938838;28;92863;-72
2022/06/15 06:04:18;;;;;;;6.70;4.20;;;19.20;92.80;;;;;;4939242;28;91726;-72
2022/06/15 06:06:47;;;;;;;5.05;3.55;;;19.20;92.80;;;;;;4937141;28;94622;-72
2022/06/15 06:09:15;;;;;;;4.80;4.18;;;19.20;92.80;;;;;;4937411;28;93036;-72
2022/06/15 06:11:42;;;;;;;8.00;3.70;;;19.30;92.20;;;;;;4936449;28;94873;-72
2022/06/15 06:14:09;;;;;;;6.30;4.40;;;19.30;92.20;;;;;;4937595;28;92563;-72
2022/06/15 06:16:36;;;;;;;5.60;3.30;;;19.20;92.30;;;;;;4938759;28;94656;-72
2022/06/15 06:19:03;;;;;;;5.07;4.10;;;19.20;92.50;;;;;;4937153;28;94539;-72
2022/06/15 06:21:30;;;;;;;8.70;5.70;;;19.20;92.70;;;;;;4937662;28;92927;-72
2022/06/15 06:23:57;;;;;;;6.43;3.92;;;19.30;93.00;;;;;;4937245;28;92446;-72
2022/06/15 06:26:31;;;;;;;7.18;4.57;;;19.40;92.40;;;;;;4938578;28;93159;-72
2022/06/15 06:28:59;;;;;;;;;;;19.70;92.20;;;;;;4939466;28;92939;-72
2022/06/15 06:31:27;;;;;;;5.88;3.70;;;19.70;91.90;;;;;;4938408;28;92634;-72
2022/06/15 06:33:55;;;;;;;5.22;3.05;;;20.10;91.80;;;;;;4937056;28;92955;-72
2022/06/15 06:36:29;;;;;;;5.43;4.80;;;20.30;91.10;;;;;;4935899;28;95979;-72
2022/06/15 06:38:58;;;;;;;5.75;4.45;;;20.50;90.50;;;;;;4938159;28;95373;-72
2022/06/15 06:41:25;;;;;;;6.28;3.53;;;20.60;90.50;;;;;;4938736;28;92517;-72
2022/06/15 06:43:59;;;;;;;6.65;3.47;;;20.60;90.50;;;;;;4938465;28;92589;-72
2022/06/15 06:46:26;;;;;;;6.03;3.85;;;20.60;90.10;;;;;;4938075;28;93241;-72
2022/06/15 06:48:53;;;;;;;5.47;3.35;;;20.60;90.30;;;;;;4936694;28;95878;-72
2022/06/15 06:51:20;;;;;;;5.85;4.65;;;20.60;90.40;;;;;;4938279;28;92476;-72
2022/06/15 06:53:48;;;;;;;4.97;4.47;;;20.60;90.50;;;;;;4904921;28;91845;-72
2022/06/15 06:56:15;;;;;;;7.22;4.05;;;20.60;90.40;;;;;;4937103;28;93278;-72
2022/06/15 06:58:41;;;;;;;7.03;3.30;;;20.60;90.70;;;;;;4937012;28;92932;-72
2022/06/15 07:01:08;;;;;;;7.03;4.70;;;20.60;90.60;;;;;;4935565;28;95036;-72
2022/06/15 07:03:35;;;;;;;7.43;3.72;;;20.50;90.60;;;;;;4936914;28;92544;-72
2022/06/15 07:06:06;;;;;;;8.63;3.70;;;20.40;90.80;;;;;;4936536;28;93424;-72
2022/06/15 07:08:33;;;;;;;4.45;4.00;;;20.40;90.90;;;;;;4936592;28;95486;-73
2022/06/15 07:11:00;;;;;;;4.00;3.10;;;20.20;90.80;;;;;;4937942;28;92983;-72
2022/06/15 07:13:28;;;;;;;6.80;4.53;;;20.10;90.80;;;;;;4936153;28;92515;-72
2022/06/15 07:15:55;;;;;;;4.43;3.70;;;20.10;90.80;;;;;;4920017;28;95978;-72
2022/06/15 07:18:22;;;;;;;5.60;3.15;;;20.10;90.70;;;;;;4936937;28;92888;-72
2022/06/15 07:20:49;;;;;;;6.03;5.10;;;20.00;90.90;;;;;;4936976;28;92365;-72
2022/06/15 07:23:16;;;;;;;7.50;4.95;;;20.00;90.90;;;;;;4937893;28;92495;-72
2022/06/15 07:25:43;;;;;;;5.80;4.03;;;20.00;91.20;;;;;;4935026;28;98118;-72
2022/06/15 07:28:10;;;;;;;5.82;4.00;;;20.10;91.70;;;;;;4935853;28;96284;-72
2022/06/15 07:30:37;;;;;;;4.55;3.25;;;20.10;91.60;;;;;;4937826;28;92997;-72
2022/06/15 07:33:04;;;;;;;4.53;4.07;;;20.10;91.30;;;;;;4937462;28;92446;-73
2022/06/15 07:35:33;;;;;;;9.30;3.97;;;20.20;90.90;;;;;;4937694;28;92992;-72
2022/06/15 07:38:00;;;;;;;5.72;4.35;;;20.30;90.90;;;;;;4937276;28;92528;-72
2022/06/15 07:40:57;;;;;;;6.30;3.50;;;20.30;90.70;;;;;;4937504;28;92481;-72
2022/06/15 07:43:25;;;;;;;6.72;4.30;;;20.40;90.70;;;;;;4937719;28;91797;-72
2022/06/15 07:45:52;;;;;;;7.82;5.50;;;20.50;90.70;;;;;;4935925;28;93281;-72
2022/06/15 07:51:54;;;;;;;5.93;5.38;;;20.50;90.70;;;;;;4936425;28;95066;-72
2022/06/15 07:54:23;;;;;;;6.13;4.85;;;20.50;91.30;;;;;;4937509;28;92416;-72
2022/06/15 07:56:52;;;;;;;6.03;4.47;;;20.60;91.40;;;;;;4936886;28;93275;-73
2022/06/15 07:59:20;;;;;;;7.65;4.35;;;20.60;91.30;;;;;;4936368;28;106726;-72
2022/06/15 08:01:49;;;;;;;6.38;4.43;;;20.70;91.10;;;;;;4935797;28;92488;-73
2022/06/15 08:04:32;;;;;;;9.15;5.65;;;20.70;91.10;;;;;;4927376;28;92946;-72
2022/06/15 08:06:59;;;;;;;4.88;4.40;;;20.80;90.90;;;;;;4935451;28;95911;-73
2022/06/15 08:09:27;;;;;;;5.32;4.70;;;21.00;90.20;;;;;;4937431;28;91858;-73
2022/06/15 08:12:12;;;;;;;3.92;3.50;;;21.30;89.20;;;;;;4936407;28;92886;-73
2022/06/15 08:15:08;;;;;;;5.28;2.92;;;21.90;89.30;;;;;;4936161;28;92475;-73
2022/06/15 08:17:46;;;;;;;5.18;3.30;;;23.10;86.70;;;;;;4932632;28;98095;-73
2022/06/15 08:20:20;;;;;;;8.00;3.10;;;24.60;81.20;;;;;;4935248;28;95520;-73
2022/06/15 08:22:50;;;;;;;4.57;3.22;;;25.80;77.70;;;;;;4935597;28;92547;-73
2022/06/15 08:25:22;;;;;;;3.97;3.10;;;27.00;73.30;;;;;;4919374;28;92508;-73
2022/06/15 08:27:49;;;;;;;5.40;4.30;;;27.80;70.00;;;;;;4936768;28;92350;-73
2022/06/15 08:30:16;;;;;;;4.65;3.88;;;28.60;68.30;;;;;;4936375;28;92974;-73
2022/06/15 08:32:44;;;;;;;6.93;2.90;;;29.60;64.90;;;;;;4935468;28;92464;-74
2022/06/15 08:35:13;;;;;;;3.35;2.97;;;30.30;60.80;;;;;;4936977;28;92148;-73
2022/06/15 08:37:40;;;;;;;3.20;2.88;;;30.60;60.20;;;;;;4936461;28;93310;-74
2022/06/15 08:40:08;;;;;;;4.07;2.97;;;31.10;58.10;;;;;;4935176;28;93003;-74
2022/06/15 08:42:45;;;;;;;5.32;3.58;;;31.70;55.60;;;;;;4918053;28;94871;-74
2022/06/15 08:45:41;;;;;;;4.63;3.42;;;32.60;52.10;;;;;;4935064;28;92634;-74
2022/06/15 08:48:20;;;;;;;3.80;3.25;;;32.50;52.10;;;;;;4934917;28;95960;-74
2022/06/15 08:50:58;;;;;;;4.05;3.63;;;31.80;51.70;;;;;;4936635;28;93035;-74
2022/06/15 08:53:37;;;;;;;3.60;3.13;;;31.20;52.60;;;;;;4936993;28;92437;-73
2022/06/15 08:56:10;;;;;;;4.85;3.45;;;31.00;51.20;;;;;;4934913;28;92473;-73
2022/06/15 08:58:45;;;;;;;4.03;3.20;;;30.90;51.40;;;;;;4936613;28;92959;-74
2022/06/15 09:01:30;;;;;;;5.32;3.25;;;30.50;53.50;;;;;;4936332;28;93018;-73
2022/06/15 09:04:19;;;;;;;4.68;3.50;;;30.10;55.30;;;;;;4936417;28;92481;-73
2022/06/15 09:07:22;;;;;;;2.30;2.10;;;29.40;55.50;;;;;;4935240;28;93534;-73
2022/06/15 09:10:09;;;;;;;4.07;2.75;;;28.80;55.50;;;;;;4935226;28;95906;-73
2022/06/15 09:13:16;;;;;;;4.30;3.90;;;28.30;56.40;;;;;;4934903;28;97809;-73
2022/06/15 09:15:58;;;;;;;4.43;2.80;;;27.90;55.60;;;;;;4915114;28;92497;-73
2022/06/15 09:18:50;;;;;;;4.18;3.30;;;27.60;56.40;;;;;;4934791;28;92491;-73
2022/06/15 09:21:33;;;;;;;4.97;3.38;;;27.50;56.80;;;;;;4934435;28;96903;-73
2022/06/15 09:24:24;;;;;;;8.70;2.65;;;27.10;57.90;;;;;;4936418;28;92525;-73
2022/06/15 09:26:59;;;;;;;4.00;3.05;;;26.70;57.80;;;;;;4918552;28;93019;-73
2022/06/15 09:29:45;;;;;;;4.85;3.03;;;26.40;59.00;;;;;;4936744;28;91594;-73
2022/06/15 09:32:43;;;;;;;4.10;2.90;;;26.40;58.80;;;;;;4934666;28;93284;-73
2022/06/15 09:35:18;;;;;;;4.25;3.85;;;26.30;57.00;;;;;;4934829;28;93146;-73
2022/06/15 09:37:50;;;;;;;3.67;2.58;;;26.20;57.20;;;;;;4935081;28;94806;-73
2022/06/15 09:40:19;;;;;;;5.85;3.05;;;26.00;57.40;;;;;;4936061;28;92995;-73
2022/06/15 09:43:08;;;;;;;4.15;2.65;;;25.60;57.90;;;;;;4936085;28;93149;-73
2022/06/15 09:45:39;;;;;;;3.28;3.00;;;25.30;57.10;;;;;;4939206;28;92642;-73
2022/06/15 09:48:23;;;;;;;5.63;3.58;;;25.10;57.20;;;;;;4938996;28;92433;-73
2022/06/15 09:51:11;;;;;;;3.05;2.10;;;25.20;56.30;;;;;;4939586;28;92917;-73
2022/06/15 09:53:38;;;;;;;4.07;2.53;;;25.10;57.40;;;;;;4939166;28;93073;-72
2022/06/15 09:56:14;;;;;;;3.95;1.98;;;25.00;57.50;;;;;;4939035;28;93056;-72
2022/06/15 09:58:56;;;;;;;4.63;2.05;;;24.80;57.10;;;;;;4937744;28;92468;-73
2022/06/15 10:01:27;;;;;;;3.92;1.92;;;24.70;56.40;;;;;;4937047;28;93070;-73
2022/06/15 10:03:57;;;;;;;3.75;3.40;;;24.70;56.90;;;;;;4937726;28;95574;-73
2022/06/15 10:06:40;;;;;;;4.28;1.85;;;24.70;57.60;;;;;;4936916;28;97845;-73
2022/06/15 10:09:10;;;;;;;3.38;3.00;;;24.70;56.70;;;;;;4938530;28;92523;-73
2022/06/15 10:11:43;;;;;;;3.90;2.45;;;24.60;58.20;;;;;;4938827;28;92437;-73
2022/06/15 10:14:16;;;;;;;3.60;2.70;;;24.60;58.70;;;;;;4937473;28;93359;-73
2022/06/15 10:16:54;;;;;;;3.47;2.90;;;24.60;58.50;;;;;;4937386;28;95516;-73
2022/06/15 10:19:23;;;;;;;3.53;2.88;;;24.60;59.10;;;;;;4937236;28;92393;-72
2022/06/15 10:21:57;;;;;;;4.85;3.30;;;24.50;58.90;;;;;;4938963;28;91734;-73
2022/06/15 10:24:31;;;;;;;2.78;2.58;;;24.50;59.10;;;;;;4936975;28;95966;-73
2022/06/15 10:27:29;;;;;;;3.50;3.10;;;24.50;59.30;;;;;;4938600;28;93571;-73
2022/06/15 10:30:08;;;;;;;4.38;2.40;;;24.60;59.50;;;;;;4929215;28;94886;-72
2022/06/15 10:32:39;;;;;;;5.45;3.00;;;24.60;58.50;;;;;;4938571;28;93214;-72
2022/06/15 10:35:07;;;;;;;4.57;3.47;;;24.60;58.60;;;;;;4937292;28;93401;-73
2022/06/15 10:37:41;;;;;;;3.80;2.33;;;24.60;58.20;;;;;;4936895;28;93141;-73
2022/06/15 10:40:23;;;;;;;3.25;2.20;;;24.70;58.60;;;;;;4937367;28;92462;-73
2022/06/15 10:42:54;;;;;;;3.63;2.50;;;24.50;59.00;;;;;;4920999;28;92515;-73
2022/06/15 10:45:27;;;;;;;4.25;2.50;;;24.50;59.90;;;;;;4938100;28;93127;-73
2022/06/15 10:47:58;;;;;;;;;;;24.50;58.90;;;;;;4939134;28;92923;-73
2022/06/15 10:50:28;;;;;;;3.97;3.17;;;24.30;58.70;;;;;;4939401;28;92386;-72
2022/06/15 10:53:27;;;;;;;4.53;3.53;;;24.30;59.20;;;;;;4938365;28;92418;-73
2022/06/15 11:02:09;;;;;;;4.05;2.00;;;24.90;57.20;;;;;;4936891;28;92445;-73
2022/06/15 11:04:51;;;;;;;4.40;2.50;;;25.10;58.50;;;;;;4936720;28;92436;-73
2022/06/15 11:07:21;;;;;;;4.35;2.58;;;25.30;56.50;;;;;;4936865;28;93472;-72
2022/06/15 11:09:53;;;;;;;4.45;2.35;;;25.50;56.50;;;;;;4937967;28;93042;-73
2022/06/15 11:12:31;;;;;;;3.60;2.08;;;25.50;55.70;;;;;;4937852;28;92444;-73
2022/06/15 11:15:03;;;;;;;3.47;3.08;;;25.80;56.20;;;;;;4937205;28;91721;-72
2022/06/15 11:20:46;;;;;;;4.32;2.45;;;26.00;56.10;;;;;;4937611;28;92951;-73
2022/06/15 11:23:33;;;;;;;3.83;2.33;;;26.10;56.40;;;;;;4936785;28;94820;-73
2022/06/15 11:26:52;;;;;;;8.00;2.85;;;26.00;56.40;;;;;;4929425;28;92523;-73
2022/06/15 11:28:59;;;;;;;3.53;3.25;;;25.80;57.00;;;;;;4937436;28;93274;-73
2022/06/15 11:31:44;;;;;;;4.22;3.08;;;25.80;57.00;;;;;;4937391;28;95671;-73
2022/06/15 11:34:16;;;;;;;3.72;2.20;;;25.80;56.70;;;;;;4936855;28;92955;-73
2022/06/15 11:36:52;;;;;;;2.88;2.17;;;25.80;56.80;;;;;;4937977;28;92446;-73
2022/06/15 11:39:30;;;;;;;3.60;3.00;;;25.80;56.60;;;;;;4936157;28;93381;-73
2022/06/15 11:41:58;;;;;;;3.22;2.65;;;25.60;56.90;;;;;;4937882;28;91885;-73
2022/06/15 11:44:30;;;;;;;5.15;3.28;;;25.50;56.70;;;;;;4937188;28;92741;-73
2022/06/15 11:47:06;;;;;;;5.53;4.70;;;25.70;57.10;;;;;;4937609;28;92438;-73
2022/06/15 11:50:24;;;;;;;5.50;3.78;;;25.80;57.30;;;;;;4936000;28;95657;-73
2022/06/15 11:53:12;;;;;;;4.00;2.55;;;25.90;57.10;;;;;;4920053;28;95451;-73
2022/06/15 11:55:50;;;;;;;4.07;2.30;;;25.90;56.40;;;;;;4937447;28;92358;-73
2022/06/15 11:58:38;;;;;;;3.85;3.03;;;26.00;57.30;;;;;;4937295;28;92359;-73
2022/06/15 12:01:48;;;;;;;4.47;3.65;;;25.90;57.20;;;;;;4936788;28;94047;-73
2022/06/15 12:04:33;;;;;;;4.35;2.70;;;25.80;57.30;;;;;;4919644;28;95483;-73
2022/06/15 12:07:09;;;;;;;4.85;3.17;;;25.30;57.60;;;;;;4937156;28;92460;-73
2022/06/15 12:09:44;;;;;;;4.25;2.97;;;25.30;57.20;;;;;;4937393;28;91846;-73
2022/06/15 12:12:38;;;;;;;4.22;2.92;;;25.00;57.80;;;;;;4937082;28;92367;-73
2022/06/15 12:15:41;;;;;;;4.10;3.78;;;25.00;58.00;;;;;;4935794;28;95420;-73
2022/06/15 12:18:16;;;;;;;;;;;25.20;57.80;;;;;;4935301;28;94874;-72
2022/06/15 12:21:17;;;;;;;4.13;3.33;;;25.20;57.60;;;;;;4938427;28;92367;-73
2022/06/15 12:24:04;;;;;;;3.65;3.35;;;25.50;59.00;;;;;;4935204;28;94462;-73
2022/06/15 12:26:54;;;;;;;3.95;2.85;;;25.80;58.00;;;;;;4936652;28;93011;-73
2022/06/15 12:29:50;;;;;;;6.35;3.63;;;26.10;57.60;;;;;;4937008;28;92379;-73
2022/06/15 12:32:33;;;;;;;6.68;3.08;;;26.10;56.80;;;;;;4936588;28;92960;-73
2022/06/15 12:35:15;;;;;;;6.32;3.00;;;26.10;56.20;;;;;;4936860;28;93414;-73
2022/06/15 12:37:56;;;;;;;5.88;3.42;;;26.00;55.90;;;;;;4936752;28;93161;-73
2022/06/15 12:40:40;;;;;;;4.20;3.60;;;25.90;55.50;;;;;;4935250;28;92485;-72
2022/06/15 12:43:41;;;;;;;3.58;2.70;;;26.10;56.20;;;;;;4935557;28;92461;-73
2022/06/15 12:46:16;;;;;;;10.25;2.67;;;26.10;55.80;;;;;;4923660;28;98281;-73
2022/06/15 12:48:49;;;;;;;5.45;2.83;;;26.00;55.50;;;;;;4935193;28;95488;-73
2022/06/15 12:51:33;;;;;;;3.42;2.80;;;26.00;55.80;;;;;;4936700;28;92404;-73
2022/06/15 12:54:38;;;;;;;4.78;2.85;;;26.10;56.30;;;;;;4936825;28;92465;-73
2022/06/15 12:57:58;;;;;;;3.80;2.88;;;26.20;55.20;;;;;;4936561;28;93329;-73
2022/06/15 13:00:31;;;;;;;3.67;3.33;;;26.00;55.60;;;;;;4895303;28;93191;-73
2022/06/15 13:03:07;;;;;;;4.78;3.95;;;26.00;56.10;;;;;;4916648;28;92408;-73
2022/06/15 13:05:38;;;;;;;4.00;3.25;;;26.00;57.50;;;;;;4916347;28;91868;-73
2022/06/15 13:08:14;;;;;;;4.45;2.90;;;25.90;57.60;;;;;;4915656;28;93152;-73
2022/06/15 13:10:53;;;;;;;4.90;2.78;;;25.90;56.00;;;;;;4915367;28;95874;-72
2022/06/15 13:13:32;;;;;;;6.50;3.38;;;26.00;55.90;;;;;;4915832;28;94733;-73
2022/06/15 13:16:36;;;;;;;4.93;4.43;;;25.90;56.00;;;;;;4916980;28;92358;-72
2022/06/15 13:19:07;;;;;;;5.05;2.55;;;25.80;55.90;;;;;;4919053;28;92941;-73
2022/06/15 13:21:57;;;;;;;3.03;2.55;;;25.60;55.80;;;;;;4918877;28;96548;-73
2022/06/15 13:24:24;;;;;;;2.75;2.55;;;25.70;56.20;;;;;;4920501;28;92336;-73
2022/06/15 13:27:00;;;;;;;4.70;2.80;;;25.60;55.90;;;;;;4919959;28;93261;-73
2022/06/15 13:29:31;;;;;;;3.60;2.42;;;25.70;55.90;;;;;;4918779;28;95758;-72
2022/06/15 13:32:04;;;;;;;3.60;3.35;;;25.80;57.00;;;;;;4919095;28;93939;-73
2022/06/15 13:34:34;;;;;;;2.85;2.35;;;26.00;57.90;;;;;;4919011;28;92542;-73
2022/06/15 13:37:18;;;;;;;3.83;2.70;;;26.30;57.10;;;;;;4918725;28;92463;-72
2022/06/15 13:40:01;;;;;;;6.22;2.92;;;26.60;56.50;;;;;;4918646;28;95708;-72
2022/06/15 13:42:33;;;;;;;5.20;3.90;;;26.40;55.30;;;;;;4919988;28;95382;-73
2022/06/15 13:45:24;;;;;;;4.18;3.42;;;26.30;57.00;;;;;;4918542;28;92396;-73
2022/06/15 13:48:06;;;;;;;6.28;3.63;;;26.20;57.20;;;;;;4918347;28;92512;-73
2022/06/15 13:50:39;;;;;;;5.22;3.38;;;25.70;57.60;;;;;;4918391;28;95934;-73